Time;durP1;ratioP1;P1;durP2;ratioP2;P2;SDS_P1;SDS_P2;PMS_P1;PMS_P2;Temp;Humidity;BMP_temperature;BMP_pressure;BME280_temperature;BME280_humidity;BME280_pressure;Samples;Min_cycle;Max_cycle;Signal;HPM_P1;HPM_P2
2022/06/23 00:04:57;;;;;;;12.40;11.33;;;23.60;47.40;;;;;;10425572;28;20260;-74
2022/06/23 00:10:05;;;;;;;12.17;11.07;;;23.70;48.30;;;;;;10426681;28;20232;-74
2022/06/23 00:15:24;;;;;;;13.17;12.00;;;23.70;48.70;;;;;;10434541;28;20229;-74
2022/06/23 00:20:32;;;;;;;12.40;11.30;;;23.80;49.00;;;;;;10437179;28;20254;-74
2022/06/23 00:25:43;;;;;;;12.03;11.03;;;23.70;48.30;;;;;;10433527;28;20235;-74
2022/06/23 00:30:52;;;;;;;10.30;9.40;;;23.70;48.70;;;;;;10436489;28;20221;-74
2022/06/23 00:35:57;;;;;;;10.43;9.53;;;23.60;48.70;;;;;;10429323;28;20229;-74
2022/06/23 00:41:02;;;;;;;13.37;10.53;;;23.60;47.80;;;;;;10429958;28;20772;-74
2022/06/23 00:46:10;;;;;;;11.03;10.03;;;23.60;48.60;;;;;;10428907;28;20323;-74
2022/06/23 00:51:20;;;;;;;12.20;10.83;;;23.70;48.50;;;;;;10432497;28;20244;-74
2022/06/23 00:56:38;;;;;;;11.63;10.43;;;23.60;48.60;;;;;;10431400;28;20235;-74
2022/06/23 01:01:44;;;;;;;10.80;9.80;;;23.60;48.80;;;;;;10432863;28;20328;-74
2022/06/23 01:06:52;;;;;;;11.73;10.70;;;23.50;48.20;;;;;;10430986;28;20247;-74
2022/06/23 01:12:02;;;;;;;10.83;9.80;;;23.50;48.60;;;;;;10432120;28;20224;-74
2022/06/23 01:17:12;;;;;;;11.23;10.23;;;23.50;48.80;;;;;;10436187;28;20232;-74
2022/06/23 01:22:24;;;;;;;11.47;10.47;;;23.60;49.00;;;;;;10438820;28;20227;-74
2022/06/23 01:27:58;;;;;;;10.07;9.17;;;23.60;49.10;;;;;;10432844;28;20282;-74
2022/06/23 01:33:12;;;;;;;9.93;9.03;;;23.60;49.00;;;;;;10434814;28;20224;-74
2022/06/23 01:38:22;;;;;;;12.30;11.00;;;23.60;49.10;;;;;;10429782;28;20417;-74
2022/06/23 01:43:32;;;;;;;11.70;10.80;;;23.70;49.20;;;;;;10435192;28;20229;-74
2022/06/23 01:48:54;;;;;;;12.40;11.13;;;23.60;48.90;;;;;;10430791;28;20962;-74
2022/06/23 01:54:11;;;;;;;13.40;12.33;;;23.60;49.10;;;;;;10426536;28;20234;-75
2022/06/23 01:59:52;;;;;;;12.60;11.50;;;23.60;49.40;;;;;;10421761;28;20304;-74
2022/06/23 02:05:02;;;;;;;11.60;10.70;;;23.60;49.20;;;;;;10392860;28;20233;-74
2022/06/23 02:10:15;;;;;;;10.80;10.00;;;23.60;49.10;;;;;;10386024;28;20228;-74
2022/06/23 02:15:26;;;;;;;10.60;9.60;;;23.70;48.90;;;;;;10389944;28;20234;-74
2022/06/23 02:20:40;;;;;;;11.87;10.87;;;23.70;49.00;;;;;;10387345;28;20236;-74
2022/06/23 02:25:52;;;;;;;11.67;10.73;;;23.70;49.20;;;;;;10390226;28;20245;-74
2022/06/23 02:31:05;;;;;;;12.80;11.60;;;23.70;49.20;;;;;;10388703;28;20222;-74
2022/06/23 02:36:22;;;;;;;12.43;11.33;;;23.70;49.30;;;;;;10392685;28;20229;-74
2022/06/23 02:41:30;;;;;;;13.73;12.63;;;23.70;49.20;;;;;;10386604;28;20336;-74
2022/06/23 02:46:55;;;;;;;11.27;10.27;;;23.60;48.90;;;;;;10386834;28;20233;-74
2022/06/23 02:52:16;;;;;;;14.23;12.87;;;23.60;49.10;;;;;;10385813;28;20229;-74
2022/06/23 02:57:32;;;;;;;13.87;12.67;;;23.60;49.50;;;;;;10389745;28;20244;-74
2022/06/23 03:02:42;;;;;;;13.97;12.67;;;23.60;49.40;;;;;;10420352;28;20741;-75
2022/06/23 03:07:55;;;;;;;13.00;11.97;;;23.50;49.30;;;;;;10427371;28;20241;-74
2022/06/23 03:13:08;;;;;;;14.33;13.17;;;23.40;49.70;;;;;;10435551;28;23446;-74
2022/06/23 03:18:19;;;;;;;14.83;13.63;;;23.30;50.00;;;;;;10432573;28;20222;-74
2022/06/23 03:23:31;;;;;;;15.57;14.07;;;23.30;50.30;;;;;;10428540;28;21048;-74
2022/06/23 03:28:42;;;;;;;15.53;14.07;;;23.20;50.40;;;;;;10433572;28;20820;-74
2022/06/23 03:33:51;;;;;;;15.13;13.57;;;23.20;50.40;;;;;;10424546;28;20312;-75
2022/06/23 03:44:27;;;;;;;15.00;13.60;;;23.20;50.70;;;;;;10430581;28;20259;-74
2022/06/23 03:49:42;;;;;;;12.87;11.53;;;23.20;51.20;;;;;;10443363;28;20228;-75
2022/06/23 03:54:50;;;;;;;14.40;13.20;;;23.20;51.30;;;;;;10447104;28;20243;-74
2022/06/23 04:00:05;;;;;;;14.90;13.43;;;23.20;50.60;;;;;;10438621;28;20228;-75
2022/06/23 04:05:20;;;;;;;14.20;12.90;;;23.20;51.00;;;;;;10438496;28;20217;-75
2022/06/23 04:10:29;;;;;;;15.63;14.23;;;23.10;51.10;;;;;;10434221;28;20315;-74
2022/06/23 04:15:44;;;;;;;15.70;14.10;;;23.10;50.80;;;;;;10433210;28;20987;-75
2022/06/23 04:20:55;;;;;;;14.90;13.63;;;23.10;50.50;;;;;;10426635;28;20696;-74
2022/06/23 04:26:02;;;;;;;16.37;14.77;;;23.10;51.50;;;;;;10431293;28;20243;-75
2022/06/23 04:31:08;;;;;;;14.73;13.27;;;23.10;51.50;;;;;;10433456;28;20707;-74
2022/06/23 04:36:20;;;;;;;15.03;13.77;;;23.10;51.50;;;;;;10437510;28;20225;-74
2022/06/23 04:41:27;;;;;;;15.97;14.37;;;23.10;51.50;;;;;;10427131;28;20835;-75
2022/06/23 04:46:36;;;;;;;16.23;14.87;;;23.20;51.60;;;;;;10429342;28;20763;-74
2022/06/23 04:51:48;;;;;;;16.27;14.83;;;23.20;51.60;;;;;;10434190;28;20252;-74
2022/06/23 04:56:57;;;;;;;16.40;15.00;;;23.20;51.60;;;;;;10418875;28;20237;-74
2022/06/23 05:02:03;;;;;;;17.07;15.47;;;23.20;51.60;;;;;;10435071;28;20642;-74
2022/06/23 05:07:20;;;;;;;15.50;14.10;;;23.20;51.60;;;;;;10428127;28;20229;-77
2022/06/23 05:12:28;;;;;;;14.30;12.93;;;23.30;51.90;;;;;;10435447;28;20229;-77
2022/06/23 05:17:35;;;;;;;14.80;13.50;;;23.30;51.60;;;;;;10430610;28;20233;-77
2022/06/23 05:22:45;;;;;;;13.90;12.53;;;23.40;51.70;;;;;;10438218;28;20221;-77
2022/06/23 05:27:50;;;;;;;13.37;12.30;;;23.50;51.50;;;;;;10433534;28;20243;-77
2022/06/23 05:32:58;;;;;;;16.03;14.53;;;23.50;51.50;;;;;;10443921;28;20239;-77
2022/06/23 05:38:08;;;;;;;17.57;16.07;;;23.60;51.50;;;;;;10442788;28;20243;-77
2022/06/23 05:43:17;;;;;;;15.97;14.47;;;23.70;52.00;;;;;;10435135;28;20274;-77
2022/06/23 05:48:24;;;;;;;18.67;16.97;;;23.80;51.00;;;;;;10443546;28;20225;-77
2022/06/23 05:53:34;;;;;;;17.63;16.03;;;23.80;52.10;;;;;;10433256;28;20626;-77
2022/06/23 05:58:46;;;;;;;17.37;15.87;;;23.90;52.10;;;;;;10447183;28;20229;-77
2022/06/23 06:03:55;;;;;;;17.40;15.90;;;23.90;52.20;;;;;;10443307;28;20229;-77
2022/06/23 06:14:27;;;;;;;15.90;14.30;;;24.10;51.60;;;;;;10441816;28;20589;-78
2022/06/23 06:19:34;;;;;;;16.93;15.07;;;24.10;51.50;;;;;;10439095;28;20570;-77
2022/06/23 06:24:43;;;;;;;16.93;15.03;;;24.20;51.50;;;;;;10441254;28;20229;-78
2022/06/23 06:29:49;;;;;;;16.43;14.93;;;24.20;51.50;;;;;;10434808;28;20737;-76
2022/06/23 06:34:58;;;;;;;16.93;15.17;;;24.30;51.50;;;;;;10428524;28;20241;-77
2022/06/23 06:40:04;;;;;;;17.43;15.90;;;24.40;51.20;;;;;;10428302;28;20747;-78
2022/06/23 06:45:13;;;;;;;15.90;14.37;;;24.50;51.30;;;;;;10429564;28;20237;-78
2022/06/23 06:50:32;;;;;;;17.87;16.20;;;24.50;51.20;;;;;;10431535;28;20304;-77
2022/06/23 06:55:42;;;;;;;17.10;15.40;;;24.60;51.40;;;;;;10428770;28;20256;-78
2022/06/23 07:00:50;;;;;;;16.43;14.87;;;24.70;51.10;;;;;;10425586;28;20221;-77
2022/06/23 07:05:57;;;;;;;15.30;13.97;;;24.80;50.90;;;;;;10423740;28;20276;-78
2022/06/23 07:11:07;;;;;;;16.07;14.47;;;24.80;50.40;;;;;;10428700;28;20221;-78
2022/06/23 07:16:17;;;;;;;14.03;12.83;;;24.90;50.20;;;;;;10431928;28;20953;-78
2022/06/23 07:21:24;;;;;;;15.13;13.77;;;24.90;50.30;;;;;;10431740;28;20252;-78
2022/06/23 07:26:36;;;;;;;13.37;12.17;;;25.00;50.20;;;;;;10437047;28;20546;-77
2022/06/23 07:31:54;;;;;;;14.80;13.40;;;25.10;50.30;;;;;;10439238;28;20224;-77
2022/06/23 07:36:58;;;;;;;12.07;10.90;;;25.20;50.10;;;;;;10422962;28;20250;-77
2022/06/23 07:42:09;;;;;;;12.77;11.40;;;25.30;49.60;;;;;;10427555;28;20224;-78
2022/06/23 07:47:13;;;;;;;11.63;10.57;;;25.40;49.60;;;;;;10434293;28;20241;-77
2022/06/23 07:52:18;;;;;;;11.87;10.63;;;25.70;49.90;;;;;;10427827;28;20233;-77
2022/06/23 07:57:24;;;;;;;10.80;9.77;;;25.70;49.00;;;;;;10424745;28;20240;-78
2022/06/23 08:02:33;;;;;;;10.30;9.37;;;25.80;49.00;;;;;;10424851;28;20220;-77
2022/06/23 08:07:37;;;;;;;8.93;8.10;;;26.00;48.60;;;;;;10437494;28;20232;-78
2022/06/23 08:12:56;;;;;;;10.17;9.27;;;26.00;49.20;;;;;;10431369;28;20343;-77
2022/06/23 08:18:05;;;;;;;9.80;8.90;;;26.10;47.70;;;;;;10435193;28;20696;-77
2022/06/23 08:23:10;;;;;;;8.63;7.80;;;26.10;47.30;;;;;;10441147;28;20823;-78
2022/06/23 08:28:16;;;;;;;8.20;7.40;;;26.10;47.50;;;;;;10443870;28;20225;-77
2022/06/23 08:33:19;;;;;;;8.27;7.40;;;26.20;47.60;;;;;;10441219;28;20225;-75
2022/06/23 08:38:28;;;;;;;10.17;7.27;;;26.30;47.80;;;;;;10429999;28;20226;-74
2022/06/23 08:43:38;;;;;;;9.13;6.47;;;26.50;46.70;;;;;;10436249;28;20231;-74
2022/06/23 08:48:46;;;;;;;7.10;6.50;;;26.60;45.80;;;;;;10432585;28;20256;-74
2022/06/23 08:54:00;;;;;;;8.93;5.77;;;26.80;45.90;;;;;;10430194;28;20225;-73
2022/06/23 08:59:13;;;;;;;10.77;6.80;;;26.80;44.80;;;;;;10437055;28;20221;-74
2022/06/23 09:04:28;;;;;;;8.30;5.93;;;27.00;44.30;;;;;;10430580;28;20224;-74
2022/06/23 09:09:38;;;;;;;8.07;6.63;;;27.00;45.60;;;;;;10428845;28;20703;-74
2022/06/23 09:14:59;;;;;;;9.90;7.23;;;27.20;44.60;;;;;;10422791;28;20228;-75
2022/06/23 09:20:18;;;;;;;7.03;5.53;;;27.30;43.80;;;;;;10422824;28;20225;-74
2022/06/23 09:25:32;;;;;;;8.70;6.30;;;27.50;43.90;;;;;;10427890;28;20723;-74
2022/06/23 09:30:40;;;;;;;8.27;5.73;;;27.70;43.30;;;;;;10431560;28;20808;-75
2022/06/23 09:36:06;;;;;;;7.33;6.03;;;27.80;42.80;;;;;;10425455;28;20620;-75
2022/06/23 09:41:21;;;;;;;10.67;6.30;;;28.00;43.00;;;;;;10428131;28;20225;-75
2022/06/23 09:47:01;;;;;;;8.10;6.10;;;28.10;41.90;;;;;;10426424;28;20239;-74
2022/06/23 09:52:42;;;;;;;8.47;6.30;;;28.10;43.00;;;;;;10425412;28;20232;-74
2022/06/23 09:58:19;;;;;;;7.77;5.10;;;28.20;42.50;;;;;;10419511;28;20665;-72
2022/06/23 10:03:42;;;;;;;7.77;5.37;;;28.30;43.10;;;;;;10421121;28;20225;-72
2022/06/23 10:08:55;;;;;;;7.87;5.10;;;28.50;42.00;;;;;;10417514;28;20229;-71
2022/06/23 10:14:14;;;;;;;9.33;5.60;;;28.80;41.20;;;;;;10417497;28;20225;-71
2022/06/23 10:19:34;;;;;;;7.23;4.60;;;28.90;40.00;;;;;;10404356;28;20230;-72
2022/06/23 10:24:51;;;;;;;6.37;4.67;;;29.10;40.60;;;;;;10397786;28;20320;-72
2022/06/23 10:30:18;;;;;;;7.57;4.40;;;29.20;39.10;;;;;;10405302;28;20225;-72
2022/06/23 10:36:13;;;;;;;6.37;4.70;;;29.40;40.30;;;;;;10396712;28;20240;-72
2022/06/23 10:41:33;;;;;;;7.60;4.10;;;29.50;39.80;;;;;;10392434;28;20697;-72
2022/06/23 10:46:42;;;;;;;5.63;4.07;;;29.60;37.90;;;;;;10401405;28;20258;-72
2022/06/23 10:52:10;;;;;;;7.00;4.00;;;29.70;37.40;;;;;;10437243;28;20239;-73
2022/06/23 10:57:38;;;;;;;5.90;3.70;;;29.90;37.60;;;;;;10390610;28;20233;-73
2022/06/23 11:03:14;;;;;;;7.57;3.47;;;30.00;37.00;;;;;;10424347;28;20235;-72
2022/06/23 11:08:33;;;;;;;4.13;3.47;;;30.20;37.30;;;;;;10407600;28;20225;-72
2022/06/23 11:13:49;;;;;;;5.77;3.23;;;30.20;36.70;;;;;;10426385;28;20788;-72
2022/06/23 11:19:09;;;;;;;6.53;3.63;;;30.20;35.60;;;;;;10432650;28;20319;-72
2022/06/23 11:24:23;;;;;;;7.67;3.50;;;30.30;36.00;;;;;;10430527;28;20220;-72
2022/06/23 11:29:56;;;;;;;4.77;3.53;;;30.30;35.10;;;;;;10431911;28;20711;-72
2022/06/23 11:35:19;;;;;;;5.50;3.40;;;30.40;35.70;;;;;;10434214;28;20565;-71
2022/06/23 11:40:35;;;;;;;6.13;3.73;;;30.40;35.00;;;;;;10434361;28;20229;-71
2022/06/23 11:45:56;;;;;;;3.87;3.43;;;30.60;34.50;;;;;;10435727;28;20276;-71
2022/06/23 11:51:10;;;;;;;5.17;3.30;;;30.60;34.80;;;;;;10432420;28;20233;-72
2022/06/23 11:56:34;;;;;;;5.73;3.60;;;30.60;33.60;;;;;;10443626;28;20232;-72
2022/06/23 12:01:39;;;;;;;6.13;3.57;;;30.70;33.60;;;;;;10432624;28;20296;-72
2022/06/23 12:06:52;;;;;;;5.90;3.37;;;30.80;34.30;;;;;;10424995;28;20232;-71
2022/06/23 12:11:57;;;;;;;6.27;3.00;;;30.80;32.70;;;;;;10430906;28;20232;-71
2022/06/23 12:17:07;;;;;;;6.30;3.20;;;30.90;33.50;;;;;;10422355;28;20690;-71
2022/06/23 12:22:19;;;;;;;6.23;3.20;;;30.90;32.10;;;;;;10416458;28;20700;-72
2022/06/23 12:27:26;;;;;;;4.23;3.40;;;30.90;32.20;;;;;;10443075;28;20608;-72
2022/06/23 12:32:43;;;;;;;5.60;3.50;;;31.00;32.60;;;;;;10437723;28;20225;-72
2022/06/23 12:37:57;;;;;;;5.77;3.23;;;31.10;32.30;;;;;;10417587;28;20229;-72
2022/06/23 12:43:07;;;;;;;4.87;3.10;;;31.20;32.20;;;;;;10422586;28;20229;-72
2022/06/23 12:48:24;;;;;;;7.13;3.23;;;31.30;31.30;;;;;;10428006;28;20228;-72
2022/06/23 12:53:54;;;;;;;4.17;3.03;;;31.40;30.80;;;;;;10425210;28;20232;-71
2022/06/23 12:59:03;;;;;;;5.20;3.37;;;31.40;31.10;;;;;;10409710;28;20233;-69
2022/06/23 13:04:14;;;;;;;3.40;2.87;;;31.50;30.90;;;;;;10411304;28;20221;-71
2022/06/23 13:09:29;;;;;;;3.93;2.60;;;31.60;29.80;;;;;;10414133;28;20255;-70
2022/06/23 13:14:56;;;;;;;5.17;2.70;;;31.70;29.60;;;;;;10415235;28;20227;-72
2022/06/23 13:20:08;;;;;;;4.77;2.90;;;31.80;29.90;;;;;;10403788;28;20233;-73
2022/06/23 13:25:17;;;;;;;4.27;2.80;;;31.80;29.60;;;;;;10410984;28;20230;-72
2022/06/23 13:30:24;;;;;;;4.40;2.80;;;31.90;29.30;;;;;;10406553;28;20586;-72
2022/06/23 13:35:35;;;;;;;5.47;2.60;;;31.90;29.60;;;;;;10407269;28;20636;-72
2022/06/23 13:40:45;;;;;;;5.23;2.70;;;31.90;28.80;;;;;;10415070;28;20224;-72
2022/06/23 13:45:55;;;;;;;4.43;2.73;;;31.90;28.50;;;;;;10423069;28;20240;-72
2022/06/23 13:51:05;;;;;;;4.80;2.60;;;32.00;28.30;;;;;;10424350;28;20220;-72
2022/06/23 13:56:16;;;;;;;4.93;2.73;;;32.00;28.60;;;;;;10420249;28;20597;-73
2022/06/23 14:01:26;;;;;;;4.37;2.60;;;32.10;28.20;;;;;;10427552;28;20538;-72
2022/06/23 14:06:37;;;;;;;4.00;2.57;;;32.10;27.90;;;;;;10434103;28;20714;-72
2022/06/23 14:11:45;;;;;;;4.67;2.60;;;32.10;27.60;;;;;;10433402;28;20229;-73
2022/06/23 14:16:56;;;;;;;3.90;2.70;;;32.20;28.00;;;;;;10433372;28;20226;-73
2022/06/23 14:22:07;;;;;;;3.87;2.43;;;32.20;27.60;;;;;;10428937;28;20229;-73
2022/06/23 14:27:19;;;;;;;5.23;2.53;;;32.20;27.60;;;;;;10435344;28;20644;-73
2022/06/23 14:32:30;;;;;;;5.97;2.47;;;32.30;27.30;;;;;;10428525;28;20242;-73
2022/06/23 14:37:44;;;;;;;3.77;2.77;;;32.20;27.40;;;;;;10422868;28;20255;-73
2022/06/23 14:43:10;;;;;;;5.13;2.50;;;32.20;27.40;;;;;;10427600;28;20708;-74
2022/06/23 14:48:45;;;;;;;4.50;2.40;;;32.30;27.10;;;;;;10430986;28;20217;-73
2022/06/23 14:53:56;;;;;;;6.80;2.37;;;32.30;27.30;;;;;;10429018;28;20225;-73
2022/06/23 14:59:06;;;;;;;5.97;2.70;;;32.30;26.80;;;;;;10432345;28;20237;-74
2022/06/23 15:04:20;;;;;;;4.47;2.63;;;32.30;26.50;;;;;;10439405;28;20312;-73
2022/06/23 15:09:36;;;;;;;6.50;3.17;;;32.30;26.40;;;;;;10423387;28;20230;-73
2022/06/23 15:14:45;;;;;;;5.13;2.90;;;32.30;26.20;;;;;;10434014;28;20586;-74
2022/06/23 15:19:56;;;;;;;5.57;2.80;;;32.30;26.50;;;;;;10415395;28;20252;-74
2022/06/23 15:25:06;;;;;;;8.93;2.70;;;32.30;25.60;;;;;;10433790;28;20263;-74
2022/06/23 15:30:14;;;;;;;4.63;2.60;;;32.40;26.40;;;;;;10435848;28;20257;-73
2022/06/23 15:35:28;;;;;;;4.27;2.50;;;32.40;25.80;;;;;;10429614;28;20854;-73
2022/06/23 15:40:43;;;;;;;3.37;2.40;;;32.40;25.50;;;;;;10429113;28;20235;-73
2022/06/23 15:45:58;;;;;;;4.27;2.50;;;32.40;26.00;;;;;;10439776;28;21158;-72
2022/06/23 15:51:04;;;;;;;5.50;2.80;;;32.50;26.10;;;;;;10432008;28;20220;-73
2022/06/23 15:56:13;;;;;;;5.10;3.10;;;32.50;26.10;;;;;;10434424;28;20218;-72
2022/06/23 16:01:25;;;;;;;5.23;3.00;;;32.50;25.30;;;;;;10444930;28;20229;-74
2022/06/23 16:06:33;;;;;;;3.23;2.40;;;32.50;25.80;;;;;;10441313;28;20229;-74
2022/06/23 16:11:46;;;;;;;5.83;3.40;;;32.50;25.50;;;;;;10441902;28;20232;-74
2022/06/23 16:16:53;;;;;;;3.93;2.70;;;32.50;25.60;;;;;;10439912;28;20228;-74
2022/06/23 16:22:02;;;;;;;9.57;6.87;;;32.50;26.20;;;;;;10438855;28;20323;-74
2022/06/23 16:27:13;;;;;;;5.93;4.30;;;32.50;26.00;;;;;;10437116;28;20228;-74
2022/06/23 16:32:23;;;;;;;6.50;3.73;;;32.50;25.10;;;;;;10440353;28;20239;-74
2022/06/23 16:37:41;;;;;;;5.73;3.37;;;32.40;25.40;;;;;;10443409;28;20233;-74
2022/06/23 16:42:56;;;;;;;4.40;2.67;;;32.40;25.30;;;;;;10439359;28;20222;-74
2022/06/23 16:48:09;;;;;;;2.60;2.20;;;32.30;25.30;;;;;;10427773;28;20236;-73
2022/06/23 16:53:22;;;;;;;3.20;2.40;;;32.30;24.80;;;;;;10436092;28;20665;-73
2022/06/23 16:58:37;;;;;;;4.57;2.30;;;32.30;24.80;;;;;;10436611;28;20229;-73
2022/06/23 17:03:50;;;;;;;3.47;2.10;;;32.30;24.70;;;;;;10436588;28;20228;-73
2022/06/23 17:08:59;;;;;;;5.03;2.50;;;32.30;24.50;;;;;;10438953;28;20780;-73
2022/06/23 17:14:10;;;;;;;2.90;2.33;;;32.30;24.60;;;;;;10436637;28;20216;-73
2022/06/23 17:19:17;;;;;;;4.93;2.33;;;32.20;25.10;;;;;;10433984;28;20225;-72
2022/06/23 17:24:25;;;;;;;3.93;2.10;;;32.10;24.70;;;;;;10441611;28;20228;-73
2022/06/23 17:29:41;;;;;;;3.90;2.10;;;32.10;24.80;;;;;;10434242;28;20226;-73
2022/06/23 17:34:52;;;;;;;4.37;2.40;;;32.00;24.60;;;;;;10437599;28;20232;-73
2022/06/23 17:45:23;;;;;;;4.27;2.57;;;31.90;25.30;;;;;;10439507;28;20244;-73
2022/06/23 17:50:29;;;;;;;4.30;2.50;;;31.90;25.30;;;;;;10429415;28;20304;-73
2022/06/23 17:55:37;;;;;;;4.93;2.30;;;31.80;25.50;;;;;;10432347;28;20229;-73
2022/06/23 18:00:45;;;;;;;4.10;2.33;;;31.80;25.40;;;;;;10416383;28;20291;-73
2022/06/23 18:05:59;;;;;;;4.60;2.23;;;31.70;25.20;;;;;;10431476;28;20243;-73
2022/06/23 18:11:06;;;;;;;5.03;2.20;;;31.70;25.60;;;;;;10431655;28;20221;-73
2022/06/23 18:16:23;;;;;;;3.37;2.23;;;31.60;26.00;;;;;;10430064;28;20244;-73
2022/06/23 18:21:37;;;;;;;4.17;2.17;;;31.60;26.00;;;;;;10438752;28;20232;-73
2022/06/23 18:26:48;;;;;;;4.60;2.40;;;31.70;25.70;;;;;;10447871;28;20739;-73
2022/06/23 18:31:58;;;;;;;3.30;2.33;;;31.70;25.90;;;;;;10414232;28;20267;-73
2022/06/23 18:37:08;;;;;;;3.63;2.27;;;31.70;25.70;;;;;;10436698;28;20239;-72
2022/06/23 18:42:17;;;;;;;4.50;2.37;;;31.60;26.00;;;;;;10427970;28;20225;-73
2022/06/23 18:47:28;;;;;;;4.47;2.47;;;31.50;26.10;;;;;;10440314;28;20233;-73
2022/06/23 18:52:41;;;;;;;4.30;2.47;;;31.40;26.20;;;;;;10425316;28;20229;-71
2022/06/23 18:57:48;;;;;;;4.00;2.40;;;31.40;26.30;;;;;;10445397;28;20247;-72
2022/06/23 19:02:57;;;;;;;4.03;2.30;;;31.30;26.50;;;;;;10433242;28;20381;-72
2022/06/23 19:08:05;;;;;;;4.00;2.30;;;31.30;26.50;;;;;;10430332;28;20229;-72
2022/06/23 19:13:34;;;;;;;6.43;2.53;;;31.30;26.70;;;;;;10446700;28;20224;-73
2022/06/23 19:18:47;;;;;;;2.67;2.30;;;31.20;26.80;;;;;;10437541;28;20769;-72
2022/06/23 19:23:56;;;;;;;3.60;2.13;;;31.00;26.80;;;;;;10449095;28;20229;-71
2022/06/23 19:29:09;;;;;;;5.57;2.60;;;30.90;26.80;;;;;;10448146;28;20260;-72
2022/06/23 19:34:17;;;;;;;4.43;2.37;;;30.80;27.00;;;;;;10447151;28;20248;-72
2022/06/23 19:39:41;;;;;;;4.00;2.60;;;30.70;27.10;;;;;;10454564;28;20604;-73
2022/06/23 19:45:10;;;;;;;5.90;2.37;;;30.50;27.30;;;;;;10454338;28;20235;-73
2022/06/23 19:50:24;;;;;;;2.97;2.40;;;30.40;27.60;;;;;;10435134;28;20232;-73
2022/06/23 19:55:30;;;;;;;4.87;2.53;;;30.30;27.70;;;;;;10412146;28;20253;-73
2022/06/23 20:00:47;;;;;;;4.03;2.20;;;30.10;27.90;;;;;;10412727;28;20617;-75
2022/06/23 20:05:57;;;;;;;4.30;2.50;;;30.00;28.10;;;;;;10462227;28;20235;-74
2022/06/23 20:11:11;;;;;;;3.20;2.40;;;29.80;28.50;;;;;;10446985;28;20718;-73
2022/06/23 20:16:14;;;;;;;6.33;2.50;;;29.70;28.90;;;;;;10449173;28;20314;-74
2022/06/23 20:21:29;;;;;;;3.63;2.60;;;29.60;28.60;;;;;;10421607;28;20750;-72
2022/06/23 20:26:43;;;;;;;5.50;2.53;;;29.50;29.10;;;;;;10423791;28;20604;-73
2022/06/23 20:31:59;;;;;;;2.90;2.60;;;29.30;29.40;;;;;;10422206;28;20239;-72
2022/06/23 20:37:17;;;;;;;4.67;2.70;;;29.10;29.50;;;;;;10419069;28;20244;-73
2022/06/23 20:42:31;;;;;;;3.00;2.67;;;29.00;29.60;;;;;;10421508;28;20224;-73
2022/06/23 20:47:47;;;;;;;3.90;2.63;;;28.80;29.90;;;;;;10427403;28;20232;-73
2022/06/23 20:53:00;;;;;;;3.40;2.80;;;28.80;30.70;;;;;;10432557;28;20734;-73
2022/06/23 20:58:10;;;;;;;4.23;3.10;;;28.60;29.80;;;;;;10430371;28;20240;-73
2022/06/23 21:03:19;;;;;;;4.97;2.67;;;28.50;30.20;;;;;;10427215;28;20611;-72
2022/06/23 21:08:36;;;;;;;4.70;2.60;;;28.40;30.30;;;;;;10423078;28;20340;-72
2022/06/23 21:13:49;;;;;;;3.00;2.70;;;28.30;30.40;;;;;;10428368;28;20272;-72
2022/06/23 21:19:04;;;;;;;3.20;2.73;;;28.10;30.30;;;;;;10427695;28;20235;-72
2022/06/23 21:24:30;;;;;;;3.40;2.90;;;28.00;30.20;;;;;;10427200;28;20224;-73
2022/06/23 21:29:53;;;;;;;6.10;3.37;;;27.80;30.10;;;;;;10430511;28;20230;-73
2022/06/23 21:35:02;;;;;;;4.87;3.37;;;27.70;31.10;;;;;;10434566;28;20756;-73
2022/06/23 21:40:12;;;;;;;4.13;2.93;;;27.70;31.10;;;;;;10427077;28;20233;-72
2022/06/23 21:45:21;;;;;;;3.07;2.77;;;27.50;31.20;;;;;;10427327;28;20229;-73
2022/06/23 21:50:44;;;;;;;4.00;2.90;;;27.50;31.50;;;;;;10432158;28;20260;-73
2022/06/23 21:55:58;;;;;;;5.53;3.50;;;27.40;31.70;;;;;;10426673;28;20321;-72
2022/06/23 22:01:12;;;;;;;3.87;3.10;;;27.30;31.80;;;;;;10425658;28;20299;-72
2022/06/23 22:06:21;;;;;;;3.43;3.03;;;27.10;31.60;;;;;;10433195;28;20796;-73
2022/06/23 22:11:33;;;;;;;3.43;3.03;;;27.00;31.90;;;;;;10425619;28;20216;-73
2022/06/23 22:16:37;;;;;;;3.30;3.00;;;26.80;32.00;;;;;;10424687;28;20249;-73
2022/06/23 22:21:45;;;;;;;3.93;3.30;;;26.70;31.70;;;;;;10427625;28;20237;-72
2022/06/23 22:26:51;;;;;;;3.80;3.30;;;26.50;32.40;;;;;;10421673;28;20709;-72
2022/06/23 22:31:57;;;;;;;3.47;3.17;;;26.30;32.80;;;;;;10418376;28;20241;-72
2022/06/23 22:37:26;;;;;;;5.93;3.73;;;26.00;32.80;;;;;;10424115;28;20319;-72
2022/06/23 22:42:33;;;;;;;4.10;3.70;;;25.80;33.90;;;;;;10425160;28;20229;-72
2022/06/23 22:47:38;;;;;;;4.63;3.70;;;25.60;34.20;;;;;;10427922;28;20661;-72
2022/06/23 22:52:44;;;;;;;4.10;3.57;;;25.50;34.40;;;;;;10423247;28;20321;-72
2022/06/23 22:57:58;;;;;;;4.87;3.40;;;25.50;34.50;;;;;;10423296;28;20250;-72
2022/06/23 23:03:04;;;;;;;5.73;3.93;;;25.40;35.40;;;;;;10427200;28;20225;-73
2022/06/23 23:08:16;;;;;;;5.17;3.67;;;25.40;35.30;;;;;;10430158;28;20237;-73
2022/06/23 23:13:26;;;;;;;4.23;3.53;;;25.40;35.70;;;;;;10420747;28;20222;-72
2022/06/23 23:18:33;;;;;;;3.90;3.60;;;25.40;36.20;;;;;;10421397;28;20243;-72
2022/06/23 23:23:47;;;;;;;3.93;3.60;;;25.40;35.90;;;;;;10431977;28;20723;-73
2022/06/23 23:28:52;;;;;;;4.10;3.70;;;25.40;35.40;;;;;;10427512;28;20271;-73
2022/06/23 23:33:56;;;;;;;4.70;3.87;;;25.40;35.50;;;;;;10419094;28;20231;-72
2022/06/23 23:39:05;;;;;;;3.93;3.53;;;25.40;35.50;;;;;;10425495;28;20890;-72
2022/06/23 23:44:08;;;;;;;5.33;3.83;;;25.30;36.40;;;;;;10422082;28;20237;-73
2022/06/23 23:49:17;;;;;;;3.97;3.33;;;25.20;35.50;;;;;;10428067;28;20236;-72
2022/06/23 23:54:22;;;;;;;5.20;4.17;;;25.10;36.60;;;;;;10426895;28;20228;-72
2022/06/23 23:59:25;;;;;;;4.00;3.70;;;25.10;36.70;;;;;;10429334;28;20247;-72
